Time,TemperatureF,DewpointF,PressureIn,WindDirection,WindDirectionDegrees,WindSpeedMPH,WindSpeedGustMPH,Humidity,HourlyPrecipIn,Conditions,Clouds,dailyrainin,SoftwareType,DateUTC
2013-03-05 00:00:00,32.8,25.5,29.69,North,0,0.0,6.0,74,-99.99,,,-99.99,PWS SA v1.10,2013-03-05 05:00:00,
2013-03-05 00:05:00,32.8,24.9,29.69,North,10,5.1,6.0,73,-99.99,,,-99.99,PWS SA v1.10,2013-03-05 05:05:00,
2013-03-05 00:10:00,32.5,24.6,29.70,North,0,0.0,5.0,73,-99.99,,,-99.99,PWS SA v1.10,2013-03-05 05:10:00,
2013-03-05 00:15:00,32.5,24.4,29.69,WSW,240,3.4,6.0,72,-99.99,,,-99.99,PWS SA v1.10,2013-03-05 05:15:00,
2013-03-05 00:20:00,32.3,24.6,29.69,NNW,329,5.1,6.0,73,-99.99,,,-99.99,PWS SA v1.10,2013-03-05 05:20:00,
2013-03-05 00:25:00,32.2,24.1,29.69,NNW,339,3.4,6.0,73,-99.99,,,-99.99,PWS SA v1.10,2013-03-05 05:25:00,
2013-03-05 00:30:00,32.4,24.7,29.70,NW,309,3.4,5.0,74,-99.99,,,-99.99,PWS SA v1.10,2013-03-05 05:30:00,
2013-03-05 00:35:00,32.5,24.4,29.70,NNW,329,5.1,13.0,72,-99.99,,,-99.99,PWS SA v1.10,2013-03-05 05:35:00,
2013-03-05 00:40:00,32.5,24.3,29.70,NW,322,1.7,13.0,72,-99.99,,,-99.99,PWS SA v1.10,2013-03-05 05:40:00,
2013-03-05 00:45:00,32.6,24.4,29.71,NW,314,3.4,13.0,73,-99.99,,,-99.99,PWS SA v1.10,2013-03-05 05:45:00,
2013-03-05 00:55:00,32.6,24.4,29.71,North,10,1.7,5.0,72,-99.99,,,-99.99,PWS SA v1.10,2013-03-05 05:55:00,
2013-03-05 01:00:00,32.6,24.4,29.71,North,0,0.0,6.0,72,-99.99,,,-99.99,PWS SA v1.10,2013-03-05 06:00:00,
2013-03-05 01:05:00,32.6,24.1,29.71,North,0,0.0,6.0,71,-99.99,,,-99.99,PWS SA v1.10,2013-03-05 06:05:00,
2013-03-05 01:10:00,32.8,24.1,29.72,North,0,0.0,10.0,71,-99.99,,,-99.99,PWS SA v1.10,2013-03-05 06:10:00,
2013-03-05 01:15:00,32.7,24.1,29.73,NW,315,3.4,10.0,70,-99.99,,,-99.99,PWS SA v1.10,2013-03-05 06:15:00,
2013-03-05 01:20:00,32.9,24.0,29.73,WNW,290,5.1,10.0,70,-99.99,,,-99.99,PWS SA v1.10,2013-03-05 06:20:00,
2013-03-05 01:25:00,32.8,24.2,29.72,NNW,346,3.4,8.0,71,-99.99,,,-99.99,PWS SA v1.10,2013-03-05 06:25:00,
2013-03-05 01:30:00,32.8,24.0,29.72,NNW,337,3.4,8.0,70,-99.99,,,-99.99,PWS SA v1.10,2013-03-05 06:30:00,
2013-03-05 01:35:00,32.8,24.6,29.72,WNW,288,1.7,5.0,72,-99.99,,,-99.99,PWS SA v1.10,2013-03-05 06:35:00,
2013-03-05 01:40:00,32.7,24.6,29.72,West,262,3.4,5.0,72,-99.99,,,-99.99,PWS SA v1.10,2013-03-05 06:40:00,
2013-03-05 01:45:00,32.6,24.3,29.72,North,0,0.0,5.0,72,-99.99,,,-99.99,PWS SA v1.10,2013-03-05 06:45:00,
2013-03-05 01:50:00,32.6,23.9,29.73,NNW,345,3.4,5.0,71,-99.99,,,-99.99,PWS SA v1.10,2013-03-05 06:50:00,
2013-03-05 02:00:00,32.6,23.8,29.73,North,356,5.1,6.0,70,-99.99,,,-99.99,PWS SA v1.10,2013-03-05 07:00:00,
2013-03-05 02:05:00,32.6,24.2,29.73,North,0,0.0,6.0,71,-99.99,,,-99.99,PWS SA v1.10,2013-03-05 07:05:00,
2013-03-05 02:10:00,32.8,24.9,29.73,NW,314,5.1,6.0,73,-99.99,,,-99.99,PWS SA v1.10,2013-03-05 07:10:00,
2013-03-05 02:15:00,32.8,24.4,29.74,NW,323,3.4,5.0,71,-99.99,,,-99.99,PWS SA v1.10,2013-03-05 07:15:00,
2013-03-05 02:20:00,32.8,24.4,29.74,NE,37,6.8,6.8,71,-99.99,,,-99.99,PWS SA v1.10,2013-03-05 07:20:00,
2013-03-05 02:25:00,32.8,24.5,29.73,East,96,6.8,6.8,71,-99.99,,,-99.99,PWS SA v1.10,2013-03-05 07:25:00,
2013-03-05 02:30:00,33.0,24.7,29.73,WNW,303,5.1,8.0,72,-99.99,,,-99.99,PWS SA v1.10,2013-03-05 07:30:00,
2013-03-05 02:35:00,33.0,24.4,29.74,NW,316,1.7,8.0,70,-99.99,,,-99.99,PWS SA v1.10,2013-03-05 07:35:00,
2013-03-05 02:40:00,33.0,24.1,29.74,NW,325,1.7,8.0,69,-99.99,,,-99.99,PWS SA v1.10,2013-03-05 07:40:00,
2013-03-05 02:45:00,32.9,24.9,29.74,North,0,0.0,8.0,71,-99.99,,,-99.99,PWS SA v1.10,2013-03-05 07:45:00,
2013-03-05 02:50:00,33.0,24.7,29.74,WNW,283,1.7,8.0,71,-99.99,,,-99.99,PWS SA v1.10,2013-03-05 07:50:00,
2013-03-05 02:55:00,33.2,24.6,29.74,North,0,0.0,8.0,70,-99.99,,,-99.99,PWS SA v1.10,2013-03-05 07:55:00,
2013-03-05 03:00:00,33.3,24.6,29.74,NW,317,3.4,8.0,70,-99.99,,,-99.99,PWS SA v1.10,2013-03-05 08:00:00,
2013-03-05 03:05:00,33.2,25.1,29.75,North,0,0.0,8.0,71,-99.99,,,-99.99,PWS SA v1.10,2013-03-05 08:05:00,
2013-03-05 03:10:00,33.2,24.7,29.75,North,0,0.0,6.0,71,-99.99,,,-99.99,PWS SA v1.10,2013-03-05 08:10:00,
2013-03-05 03:15:00,33.2,24.5,29.75,North,0,0.0,6.0,70,-99.99,,,-99.99,PWS SA v1.10,2013-03-05 08:15:00,
2013-03-05 03:20:00,33.2,24.3,29.75,NW,325,1.7,8.0,70,-99.99,,,-99.99,PWS SA v1.10,2013-03-05 08:20:00,
2013-03-05 03:25:00,33.1,25.1,29.75,WNW,294,1.7,8.0,71,-99.99,,,-99.99,PWS SA v1.10,2013-03-05 08:25:00,
2013-03-05 03:30:00,33.2,24.9,29.75,North,0,0.0,8.0,71,-99.99,,,-99.99,PWS SA v1.10,2013-03-05 08:30:00,
2013-03-05 03:35:00,33.2,24.7,29.75,NNW,330,5.1,6.0,71,-99.99,,,-99.99,PWS SA v1.10,2013-03-05 08:35:00,
2013-03-05 03:40:00,33.1,24.4,29.75,West,280,3.4,5.0,70,-99.99,,,-99.99,PWS SA v1.10,2013-03-05 08:40:00,
2013-03-05 03:45:00,33.1,24.7,29.75,North,0,0.0,5.0,70,-99.99,,,-99.99,PWS SA v1.10,2013-03-05 08:45:00,
2013-03-05 03:50:00,33.0,24.7,29.76,North,0,0.0,5.0,70,-99.99,,,-99.99,PWS SA v1.10,2013-03-05 08:50:00,
2013-03-05 03:55:00,32.9,25.1,29.77,NW,318,1.7,10.0,72,-99.99,,,-99.99,PWS SA v1.10,2013-03-05 08:55:00,
2013-03-05 04:00:00,32.7,24.6,29.77,North,0,0.0,10.0,71,-99.99,,,-99.99,PWS SA v1.10,2013-03-05 09:00:00,
2013-03-05 04:05:00,32.7,24.8,29.77,NNW,327,1.7,10.0,71,-99.99,,,-99.99,PWS SA v1.10,2013-03-05 09:05:00,
2013-03-05 04:10:00,32.6,25.2,29.78,ESE,103,3.4,5.0,73,-99.99,,,-99.99,PWS SA v1.10,2013-03-05 09:10:00,
2013-03-05 04:15:00,32.6,25.2,29.77,North,0,0.0,6.0,73,-99.99,,,-99.99,PWS SA v1.10,2013-03-05 09:15:00,
2013-03-05 04:20:00,32.7,24.9,29.78,North,7,1.7,6.0,72,-99.99,,,-99.99,PWS SA v1.10,2013-03-05 09:20:00,
2013-03-05 04:25:00,32.7,25.3,29.78,North,0,0.0,6.0,73,-99.99,,,-99.99,PWS SA v1.10,2013-03-05 09:25:00,
2013-03-05 04:30:00,32.7,24.5,29.78,NNE,27,3.4,5.0,71,-99.99,,,-99.99,PWS SA v1.10,2013-03-05 09:30:00,
2013-03-05 04:35:00,32.8,24.7,29.78,North,0,0.0,5.0,71,-99.99,,,-99.99,PWS SA v1.10,2013-03-05 09:35:00,
2013-03-05 04:40:00,32.8,25.0,29.78,NNE,21,3.4,5.0,72,-99.99,,,-99.99,PWS SA v1.10,2013-03-05 09:40:00,
2013-03-05 04:45:00,32.8,24.9,29.79,NE,43,3.4,5.0,71,-99.99,,,-99.99,PWS SA v1.10,2013-03-05 09:45:00,
2013-03-05 04:50:00,33.0,25.1,29.79,North,363,3.4,5.0,71,-99.99,,,-99.99,PWS SA v1.10,2013-03-05 09:50:00,
2013-03-05 04:55:00,32.9,25.0,29.79,NW,320,1.7,3.0,72,-99.99,,,-99.99,PWS SA v1.10,2013-03-05 09:55:00,
2013-03-05 05:00:00,33.0,25.3,29.79,WNW,299,1.7,5.0,73,-99.99,,,-99.99,PWS SA v1.10,2013-03-05 10:00:00,
2013-03-05 05:05:00,33.1,25.1,29.80,NE,43,1.7,5.0,71,-99.99,,,-99.99,PWS SA v1.10,2013-03-05 10:05:00,
2013-03-05 05:10:00,33.1,24.5,29.79,North,0,0.0,5.0,71,-99.99,,,-99.99,PWS SA v1.10,2013-03-05 10:10:00,
2013-03-05 05:15:00,33.1,24.9,29.80,NW,317,3.4,5.0,71,-99.99,,,-99.99,PWS SA v1.10,2013-03-05 10:15:00,
2013-03-05 05:20:00,33.2,25.3,29.80,NW,307,1.7,5.0,73,-99.99,,,-99.99,PWS SA v1.10,2013-03-05 10:20:00,
2013-03-05 05:25:00,33.1,25.3,29.81,North,0,0.0,3.0,72,-99.99,,,-99.99,PWS SA v1.10,2013-03-05 10:25:00,
2013-03-05 05:30:00,33.2,25.5,29.81,NW,322,3.4,5.0,71,-99.99,,,-99.99,PWS SA v1.10,2013-03-05 10:30:00,
2013-03-05 05:35:00,33.2,25.3,29.81,NW,325,3.4,5.0,72,-99.99,,,-99.99,PWS SA v1.10,2013-03-05 10:35:00,
2013-03-05 05:40:00,33.2,24.8,29.81,NNW,344,5.1,5.1,71,-99.99,,,-99.99,PWS SA v1.10,2013-03-05 10:40:00,
2013-03-05 05:45:00,33.1,24.9,29.81,North,350,1.7,5.0,71,-99.99,,,-99.99,PWS SA v1.10,2013-03-05 10:45:00,
2013-03-05 05:50:00,33.2,25.7,29.81,NW,312,1.7,5.0,73,-99.99,,,-99.99,PWS SA v1.10,2013-03-05 10:50:00,
2013-03-05 05:55:00,33.3,25.4,29.81,NNW,328,3.4,5.0,72,-99.99,,,-99.99,PWS SA v1.10,2013-03-05 10:55:00,
2013-03-05 06:00:00,33.1,25.1,29.81,North,0,0.0,10.0,71,-99.99,,,-99.99,PWS SA v1.10,2013-03-05 11:00:00,
2013-03-05 06:05:00,33.2,24.8,29.81,NNW,342,8.5,10.0,71,-99.99,,,-99.99,PWS SA v1.10,2013-03-05 11:05:00,
2013-03-05 06:10:00,33.2,25.1,29.81,NW,317,3.4,10.0,72,-99.99,,,-99.99,PWS SA v1.10,2013-03-05 11:10:00,
2013-03-05 06:15:00,33.2,25.2,29.82,North,0,0.0,8.0,71,-99.99,,,-99.99,PWS SA v1.10,2013-03-05 11:15:00,
2013-03-05 06:20:00,33.2,25.0,29.82,North,0,0.0,8.0,71,-99.99,,,-99.99,PWS SA v1.10,2013-03-05 11:20:00,
2013-03-05 06:25:00,33.4,25.2,29.82,North,0,0.0,6.0,71,-99.99,,,-99.99,PWS SA v1.10,2013-03-05 11:25:00,
2013-03-05 06:30:00,33.4,25.2,29.82,North,0,0.0,5.0,71,-99.99,,,-99.99,PWS SA v1.10,2013-03-05 11:30:00,
2013-03-05 06:35:00,33.6,25.6,29.82,North,0,0.0,1.0,72,-99.99,,,-99.99,PWS SA v1.10,2013-03-05 11:35:00,
2013-03-05 06:40:00,33.5,25.4,29.83,North,351,1.7,12.0,71,-99.99,,,-99.99,PWS SA v1.10,2013-03-05 11:40:00,
2013-03-05 06:45:00,33.6,25.9,29.83,NW,309,3.4,12.0,72,-99.99,,,-99.99,PWS SA v1.10,2013-03-05 11:45:00,
2013-03-05 06:50:00,33.8,25.9,29.83,West,279,1.7,12.0,72,-99.99,,,-99.99,PWS SA v1.10,2013-03-05 11:50:00,
2013-03-05 06:55:00,33.8,25.3,29.84,NNW,327,3.4,5.0,71,-99.99,,,-99.99,PWS SA v1.10,2013-03-05 11:55:00,
2013-03-05 07:00:00,33.8,25.7,29.84,North,0,0.0,5.0,71,-99.99,,,-99.99,PWS SA v1.10,2013-03-05 12:00:00,
2013-03-05 07:05:00,33.9,25.7,29.84,NNW,336,6.8,6.8,71,-99.99,,,-99.99,PWS SA v1.10,2013-03-05 12:05:00,
2013-03-05 07:10:00,34.1,25.9,29.84,North,0,0.0,6.0,71,-99.99,,,-99.99,PWS SA v1.10,2013-03-05 12:10:00,
2013-03-05 07:15:00,34.0,26.4,29.85,North,0,0.0,6.0,72,-99.99,,,-99.99,PWS SA v1.10,2013-03-05 12:15:00,
2013-03-05 07:20:00,34.0,25.9,29.85,West,273,1.7,3.0,72,-99.99,,,-99.99,PWS SA v1.10,2013-03-05 12:20:00,
2013-03-05 07:25:00,34.0,25.6,29.85,NNW,345,3.4,5.0,70,-99.99,,,-99.99,PWS SA v1.10,2013-03-05 12:25:00,
2013-03-05 07:30:00,34.1,25.5,29.85,NNW,333,6.8,6.8,70,-99.99,,,-99.99,PWS SA v1.10,2013-03-05 12:30:00,
2013-03-05 07:35:00,34.0,25.3,29.85,NW,323,3.4,6.0,69,-99.99,,,-99.99,PWS SA v1.10,2013-03-05 12:35:00,
2013-03-05 07:40:00,34.1,26.1,29.86,North,0,0.0,6.0,71,-99.99,,,-99.99,PWS SA v1.10,2013-03-05 12:40:00,
2013-03-05 07:45:00,34.1,25.6,29.86,NNW,333,3.4,8.0,71,-99.99,,,-99.99,PWS SA v1.10,2013-03-05 12:45:00,
2013-03-05 07:50:00,34.3,25.5,29.86,North,0,0.0,8.0,70,-99.99,,,-99.99,PWS SA v1.10,2013-03-05 12:50:00,
2013-03-05 07:55:00,34.4,25.9,29.86,West,262,1.7,8.0,70,-99.99,,,-99.99,PWS SA v1.10,2013-03-05 12:55:00,
2013-03-05 08:00:00,34.6,26.0,29.86,NNW,330,3.4,8.0,70,-99.99,,,-99.99,PWS SA v1.10,2013-03-05 13:00:00,
2013-03-05 08:05:00,34.9,25.9,29.86,North,0,0.0,6.0,69,-99.99,,,-99.99,PWS SA v1.10,2013-03-05 13:05:00,
2013-03-05 08:10:00,34.9,26.4,29.87,NNW,341,1.7,6.0,71,-99.99,,,-99.99,PWS SA v1.10,2013-03-05 13:10:00,
2013-03-05 08:15:00,35.6,25.9,29.86,North,0,0.0,6.0,67,-99.99,,,-99.99,PWS SA v1.10,2013-03-05 13:15:00,
2013-03-05 08:20:00,35.8,25.5,29.87,NE,44,1.7,3.0,66,-99.99,,,-99.99,PWS SA v1.10,2013-03-05 13:20:00,
2013-03-05 08:25:00,36.1,25.6,29.87,NE,42,1.7,6.0,65,-99.99,,,-99.99,PWS SA v1.10,2013-03-05 13:25:00,
2013-03-05 08:30:00,36.2,25.6,29.87,NNE,23,1.7,6.0,65,-99.99,,,-99.99,PWS SA v1.10,2013-03-05 13:30:00,
2013-03-05 08:35:00,36.2,26.0,29.87,North,357,3.4,6.0,66,-99.99,,,-99.99,PWS SA v1.10,2013-03-05 13:35:00,
2013-03-05 08:40:00,36.5,25.9,29.87,NE,38,5.1,8.0,65,-99.99,,,-99.99,PWS SA v1.10,2013-03-05 13:40:00,
2013-03-05 08:45:00,36.8,26.2,29.87,NNE,20,3.4,8.0,65,-99.99,,,-99.99,PWS SA v1.10,2013-03-05 13:45:00,
2013-03-05 08:50:00,36.7,25.6,29.87,NNE,20,8.5,8.5,64,-99.99,,,-99.99,PWS SA v1.10,2013-03-05 13:50:00,
2013-03-05 08:55:00,36.6,25.4,29.88,North,0,0.0,8.0,64,-99.99,,,-99.99,PWS SA v1.10,2013-03-05 13:55:00,
2013-03-05 09:00:00,36.8,25.5,29.88,North,0,0.0,8.0,64,-99.99,,,-99.99,PWS SA v1.10,2013-03-05 14:00:00,
2013-03-05 09:05:00,37.3,25.6,29.88,NNE,29,5.1,5.1,63,-99.99,,,-99.99,PWS SA v1.10,2013-03-05 14:05:00,
2013-03-05 09:10:00,37.3,26.2,29.88,NNW,338,6.8,6.8,65,-99.99,,,-99.99,PWS SA v1.10,2013-03-05 14:10:00,
2013-03-05 09:15:00,37.2,25.8,29.88,NNW,328,3.4,6.0,64,-99.99,,,-99.99,PWS SA v1.10,2013-03-05 14:15:00,
2013-03-05 09:20:00,37.5,26.2,29.88,North,0,0.0,6.0,64,-99.99,,,-99.99,PWS SA v1.10,2013-03-05 14:20:00,
2013-03-05 09:25:00,37.7,26.1,29.88,North,349,1.7,8.0,63,-99.99,,,-99.99,PWS SA v1.10,2013-03-05 14:25:00,
2013-03-05 09:30:00,38.1,26.7,29.88,North,356,3.4,8.0,64,-99.99,,,-99.99,PWS SA v1.10,2013-03-05 14:30:00,
2013-03-05 09:35:00,38.4,26.4,29.88,North,6,5.1,8.0,63,-99.99,,,-99.99,PWS SA v1.10,2013-03-05 14:35:00,
2013-03-05 09:40:00,38.6,26.9,29.88,NNW,346,3.4,8.0,63,-99.99,,,-99.99,PWS SA v1.10,2013-03-05 14:40:00,
2013-03-05 09:45:00,38.6,27.0,29.88,NW,318,3.4,8.0,63,-99.99,,,-99.99,PWS SA v1.10,2013-03-05 14:45:00,
2013-03-05 09:50:00,38.8,27.1,29.88,NE,48,3.4,8.0,63,-99.99,,,-99.99,PWS SA v1.10,2013-03-05 14:50:00,
2013-03-05 09:55:00,39.3,27.5,29.89,NNE,32,3.4,6.0,63,-99.99,,,-99.99,PWS SA v1.10,2013-03-05 14:55:00,
2013-03-05 10:00:00,39.0,28.1,29.89,North,357,3.4,13.0,65,-99.99,,,-99.99,PWS SA v1.10,2013-03-05 15:00:00,
2013-03-05 10:05:00,39.1,27.4,29.88,NNE,12,3.4,13.0,63,-99.99,,,-99.99,PWS SA v1.10,2013-03-05 15:05:00,
2013-03-05 10:10:00,39.7,27.8,29.89,North,0,0.0,13.0,63,-99.99,,,-99.99,PWS SA v1.10,2013-03-05 15:10:00,
2013-03-05 10:15:00,39.4,27.4,29.89,NNE,19,5.1,6.0,62,-99.99,,,-99.99,PWS SA v1.10,2013-03-05 15:15:00,
2013-03-05 10:20:00,39.9,27.9,29.88,NNW,335,5.1,6.0,63,-99.99,,,-99.99,PWS SA v1.10,2013-03-05 15:20:00,
2013-03-05 10:25:00,39.9,27.4,29.89,North,0,0.0,8.0,61,-99.99,,,-99.99,PWS SA v1.10,2013-03-05 15:25:00,
2013-03-05 10:30:00,40.4,27.8,29.89,NNE,22,6.8,8.0,61,-99.99,,,-99.99,PWS SA v1.10,2013-03-05 15:30:00,
2013-03-05 10:35:00,40.8,28.1,29.89,ENE,74,5.1,8.0,61,-99.99,,,-99.99,PWS SA v1.10,2013-03-05 15:35:00,
2013-03-05 10:40:00,40.4,27.7,29.89,NW,314,3.4,13.0,61,-99.99,,,-99.99,PWS SA v1.10,2013-03-05 15:40:00,
2013-03-05 10:45:00,40.8,28.0,29.89,North,0,0.0,13.0,61,-99.99,,,-99.99,PWS SA v1.10,2013-03-05 15:45:00,
2013-03-05 10:50:00,41.1,28.5,29.89,North,0,0.0,13.0,61,-99.99,,,-99.99,PWS SA v1.10,2013-03-05 15:50:00,
2013-03-05 10:55:00,41.3,27.8,29.89,NNW,348,5.1,6.0,59,-99.99,,,-99.99,PWS SA v1.10,2013-03-05 15:55:00,
2013-03-05 11:00:00,41.3,28.4,29.89,ENE,77,1.7,5.0,60,-99.99,,,-99.99,PWS SA v1.10,2013-03-05 16:00:00,
2013-03-05 11:05:00,41.5,28.2,29.89,NE,48,1.7,6.0,60,-99.99,,,-99.99,PWS SA v1.10,2013-03-05 16:05:00,
2013-03-05 11:10:00,41.6,29.2,29.89,North,0,0.0,6.0,62,-99.99,,,-99.99,PWS SA v1.10,2013-03-05 16:10:00,
2013-03-05 11:15:00,41.9,28.8,29.89,North,349,3.4,6.0,60,-99.99,,,-99.99,PWS SA v1.10,2013-03-05 16:15:00,
2013-03-05 11:20:00,41.3,28.0,29.90,East,87,1.7,3.0,59,-99.99,,,-99.99,PWS SA v1.10,2013-03-05 16:20:00,
2013-03-05 11:30:00,41.7,28.2,29.90,NNE,25,1.7,5.0,59,-99.99,,,-99.99,PWS SA v1.10,2013-03-05 16:30:00,
2013-03-05 11:35:00,41.5,27.8,29.90,NNW,337,1.7,5.0,58,-99.99,,,-99.99,PWS SA v1.10,2013-03-05 16:35:00,
2013-03-05 11:40:00,41.5,28.1,29.90,NNW,342,5.1,10.0,59,-99.99,,,-99.99,PWS SA v1.10,2013-03-05 16:40:00,
2013-03-05 11:45:00,41.7,28.7,29.90,NNE,19,1.7,10.0,60,-99.99,,,-99.99,PWS SA v1.10,2013-03-05 16:45:00,
2013-03-05 11:50:00,41.6,28.7,29.90,North,0,0.0,10.0,60,-99.99,,,-99.99,PWS SA v1.10,2013-03-05 16:50:00,
2013-03-05 11:55:00,42.1,28.4,29.90,NNW,346,1.7,5.0,59,-99.99,,,-99.99,PWS SA v1.10,2013-03-05 16:55:00,
2013-03-05 12:00:00,41.9,28.1,29.90,NE,40,3.4,8.0,58,-99.99,,,-99.99,PWS SA v1.10,2013-03-05 17:00:00,
2013-03-05 12:05:00,42.1,28.7,29.90,North,6,3.4,8.0,59,-99.99,,,-99.99,PWS SA v1.10,2013-03-05 17:05:00,
2013-03-05 12:10:00,42.4,29.5,29.90,WNW,288,1.7,8.0,61,-99.99,,,-99.99,PWS SA v1.10,2013-03-05 17:10:00,
2013-03-05 12:15:00,42.5,28.7,29.90,North,0,0.0,3.0,58,-99.99,,,-99.99,PWS SA v1.10,2013-03-05 17:15:00,
2013-03-05 12:20:00,42.2,27.7,29.90,NNE,30,1.7,5.0,57,-99.99,,,-99.99,PWS SA v1.10,2013-03-05 17:20:00,
2013-03-05 12:25:00,42.7,28.8,29.90,East,80,3.4,5.0,58,-99.99,,,-99.99,PWS SA v1.10,2013-03-05 17:25:00,
2013-03-05 12:35:00,42.8,28.2,29.90,NNE,22,1.7,8.0,57,-99.99,,,-99.99,PWS SA v1.10,2013-03-05 17:35:00,
2013-03-05 12:40:00,42.7,29.8,29.90,North,0,0.0,8.0,61,-99.99,,,-99.99,PWS SA v1.10,2013-03-05 17:40:00,
2013-03-05 12:45:00,44.0,29.6,29.90,North,0,0.0,5.0,58,-99.99,,,-99.99,PWS SA v1.10,2013-03-05 17:45:00,
2013-03-05 12:50:00,44.4,29.6,29.90,WSW,239,1.7,6.0,56,-99.99,,,-99.99,PWS SA v1.10,2013-03-05 17:50:00,
2013-03-05 12:55:00,44.7,29.8,29.90,ENE,60,3.4,6.0,56,-99.99,,,-99.99,PWS SA v1.10,2013-03-05 17:55:00,
2013-03-05 13:05:00,44.0,29.0,29.90,NNE,22,3.4,6.0,56,-99.99,,,-99.99,PWS SA v1.10,2013-03-05 18:05:00,
2013-03-05 13:10:00,43.4,28.6,29.90,NNE,26,3.4,6.0,56,-99.99,,,-99.99,PWS SA v1.10,2013-03-05 18:10:00,
2013-03-05 13:15:00,43.9,29.3,29.90,North,0,0.0,6.0,57,-99.99,,,-99.99,PWS SA v1.10,2013-03-05 18:15:00,
2013-03-05 13:20:00,43.9,29.1,29.90,NW,323,1.7,5.0,56,-99.99,,,-99.99,PWS SA v1.10,2013-03-05 18:20:00,
2013-03-05 13:25:00,43.9,29.2,29.90,NE,48,3.4,5.0,56,-99.99,,,-99.99,PWS SA v1.10,2013-03-05 18:25:00,
2013-03-05 13:30:00,43.8,28.4,29.90,North,0,0.0,6.0,55,-99.99,,,-99.99,PWS SA v1.10,2013-03-05 18:30:00,
2013-03-05 13:35:00,43.9,28.3,29.90,NNE,15,3.4,6.0,54,-99.99,,,-99.99,PWS SA v1.10,2013-03-05 18:35:00,
2013-03-05 13:45:00,44.8,29.2,29.91,North,356,3.4,3.4,55,-99.99,,,-99.99,PWS SA v1.10,2013-03-05 18:45:00,
2013-03-05 13:55:00,44.7,29.3,29.91,North,0,0.0,3.0,55,-99.99,,,-99.99,PWS SA v1.10,2013-03-05 18:55:00,
2013-03-05 14:00:00,44.7,29.1,29.91,North,0,0.0,3.0,55,-99.99,,,-99.99,PWS SA v1.10,2013-03-05 19:00:00,
2013-03-05 14:05:00,44.4,28.5,29.90,NNE,27,5.1,10.0,53,-99.99,,,-99.99,PWS SA v1.10,2013-03-05 19:05:00,
2013-03-05 14:10:00,44.8,28.6,29.91,NNE,27,5.1,10.0,53,-99.99,,,-99.99,PWS SA v1.10,2013-03-05 19:10:00,
2013-03-05 14:15:00,45.2,29.3,29.91,North,0,0.0,10.0,54,-99.99,,,-99.99,PWS SA v1.10,2013-03-05 19:15:00,
2013-03-05 14:20:00,45.0,28.8,29.91,North,0,0.0,6.0,53,-99.99,,,-99.99,PWS SA v1.10,2013-03-05 19:20:00,
2013-03-05 14:25:00,45.3,29.4,29.91,NW,316,1.7,6.0,54,-99.99,,,-99.99,PWS SA v1.10,2013-03-05 19:25:00,
2013-03-05 14:35:00,47.3,30.3,29.91,North,0,0.0,5.0,52,-99.99,,,-99.99,PWS SA v1.10,2013-03-05 19:35:00,
2013-03-05 14:40:00,46.9,29.5,29.91,ENE,57,5.1,5.1,50,-99.99,,,-99.99,PWS SA v1.10,2013-03-05 19:40:00,
2013-03-05 14:45:00,46.7,29.7,29.91,North,0,0.0,5.0,52,-99.99,,,-99.99,PWS SA v1.10,2013-03-05 19:45:00,
2013-03-05 14:50:00,45.6,29.0,29.91,NE,54,5.1,5.1,52,-99.99,,,-99.99,PWS SA v1.10,2013-03-05 19:50:00,
2013-03-05 14:55:00,45.1,29.1,29.91,North,0,0.0,5.0,54,-99.99,,,-99.99,PWS SA v1.10,2013-03-05 19:55:00,
2013-03-05 15:00:00,45.1,29.4,29.92,East,87,1.7,5.0,54,-99.99,,,-99.99,PWS SA v1.10,2013-03-05 20:00:00,
2013-03-05 15:05:00,44.6,31.0,29.91,SE,124,1.7,6.0,59,-99.99,,,-99.99,PWS SA v1.10,2013-03-05 20:05:00,
2013-03-05 15:10:00,43.8,32.1,29.91,North,0,0.0,6.0,64,-99.99,,,-99.99,PWS SA v1.10,2013-03-05 20:10:00,
2013-03-05 15:15:00,43.2,32.4,29.92,North,0,0.0,6.0,65,-99.99,,,-99.99,PWS SA v1.10,2013-03-05 20:15:00,
2013-03-05 15:20:00,42.9,32.5,29.92,North,0,0.0,6.0,67,-99.99,,,-99.99,PWS SA v1.10,2013-03-05 20:20:00,
2013-03-05 15:25:00,42.8,32.8,29.92,North,0,0.0,3.0,68,-99.99,,,-99.99,PWS SA v1.10,2013-03-05 20:25:00,
2013-03-05 15:30:00,42.9,32.8,29.93,East,91,1.7,5.0,68,-99.99,,,-99.99,PWS SA v1.10,2013-03-05 20:30:00,
2013-03-05 15:35:00,42.9,33.3,29.93,ESE,119,5.1,5.1,70,-99.99,,,-99.99,PWS SA v1.10,2013-03-05 20:35:00,
2013-03-05 15:40:00,42.9,33.3,29.93,North,0,0.0,5.0,70,-99.99,,,-99.99,PWS SA v1.10,2013-03-05 20:40:00,
2013-03-05 15:45:00,42.9,33.1,29.93,ESE,102,3.4,6.0,69,-99.99,,,-99.99,PWS SA v1.10,2013-03-05 20:45:00,
2013-03-05 15:50:00,42.6,33.0,29.94,North,0,0.0,6.0,69,-99.99,,,-99.99,PWS SA v1.10,2013-03-05 20:50:00,
2013-03-05 15:55:00,42.6,33.2,29.94,North,0,0.0,6.0,70,-99.99,,,-99.99,PWS SA v1.10,2013-03-05 20:55:00,
2013-03-05 16:00:00,42.6,33.2,29.95,North,0,0.0,1.0,70,-99.99,,,-99.99,PWS SA v1.10,2013-03-05 21:00:00,
2013-03-05 16:05:00,42.6,33.1,29.95,North,0,0.0,1.0,70,-99.99,,,-99.99,PWS SA v1.10,2013-03-05 21:05:00,
2013-03-05 16:10:00,42.4,33.5,29.95,North,0,0.0,0.0,71,-99.99,,,-99.99,PWS SA v1.10,2013-03-05 21:10:00,
2013-03-05 16:15:00,42.5,32.9,29.95,North,0,0.0,0.0,70,-99.99,,,-99.99,PWS SA v1.10,2013-03-05 21:15:00,
2013-03-05 16:20:00,42.5,32.4,29.95,North,0,0.0,0.0,68,-99.99,,,-99.99,PWS SA v1.10,2013-03-05 21:20:00,
2013-03-05 16:25:00,42.4,32.0,29.95,North,0,0.0,3.0,68,-99.99,,,-99.99,PWS SA v1.10,2013-03-05 21:25:00,
2013-03-05 16:30:00,42.4,31.7,29.95,North,0,0.0,3.0,67,-99.99,,,-99.99,PWS SA v1.10,2013-03-05 21:30:00,
2013-03-05 16:35:00,42.4,31.8,29.95,North,0,0.0,3.0,66,-99.99,,,-99.99,PWS SA v1.10,2013-03-05 21:35:00,
2013-03-05 16:40:00,42.4,31.6,29.95,North,0,0.0,0.0,66,-99.99,,,-99.99,PWS SA v1.10,2013-03-05 21:40:00,
2013-03-05 16:45:00,42.2,31.4,29.95,North,0,0.0,0.0,66,-99.99,,,-99.99,PWS SA v1.10,2013-03-05 21:45:00,
2013-03-05 16:50:00,42.4,31.4,29.95,NNW,328,1.7,1.7,66,-99.99,,,-99.99,PWS SA v1.10,2013-03-05 21:50:00,
2013-03-05 17:00:00,42.2,31.4,29.96,North,0,0.0,1.0,66,-99.99,,,-99.99,PWS SA v1.10,2013-03-05 22:00:00,
2013-03-05 17:05:00,42.2,31.3,29.96,North,0,0.0,1.0,66,-99.99,,,-99.99,PWS SA v1.10,2013-03-05 22:05:00,
2013-03-05 17:10:00,41.9,31.3,29.96,North,0,0.0,1.0,67,-99.99,,,-99.99,PWS SA v1.10,2013-03-05 22:10:00,
2013-03-05 17:15:00,41.7,31.1,29.96,North,0,0.0,1.0,67,-99.99,,,-99.99,PWS SA v1.10,2013-03-05 22:15:00,
2013-03-05 17:25:00,40.8,31.4,29.96,North,0,0.0,1.0,70,-99.99,,,-99.99,PWS SA v1.10,2013-03-05 22:25:00,
2013-03-05 17:30:00,40.3,32.0,29.96,North,0,0.0,1.0,72,-99.99,,,-99.99,PWS SA v1.10,2013-03-05 22:30:00,
2013-03-05 17:35:00,40.0,31.8,29.96,North,0,0.0,0.0,73,-99.99,,,-99.99,PWS SA v1.10,2013-03-05 22:35:00,
2013-03-05 17:40:00,39.5,31.9,29.96,North,0,0.0,0.0,75,-99.99,,,-99.99,PWS SA v1.10,2013-03-05 22:40:00,
2013-03-05 17:45:00,39.8,32.8,29.96,North,0,0.0,0.0,77,-99.99,,,-99.99,PWS SA v1.10,2013-03-05 22:45:00,
2013-03-05 17:50:00,39.2,32.7,29.97,North,0,0.0,0.0,78,-99.99,,,-99.99,PWS SA v1.10,2013-03-05 22:50:00,
2013-03-05 17:55:00,39.0,32.8,29.96,North,0,0.0,0.0,79,-99.99,,,-99.99,PWS SA v1.10,2013-03-05 22:55:00,
2013-03-05 18:00:00,39.1,33.3,29.97,North,0,0.0,3.0,81,-99.99,,,-99.99,PWS SA v1.10,2013-03-05 23:00:00,
2013-03-05 18:05:00,39.0,33.4,29.96,North,0,0.0,3.0,81,-99.99,,,-99.99,PWS SA v1.10,2013-03-05 23:05:00,
2013-03-05 18:10:00,39.0,33.6,29.97,North,0,0.0,3.0,82,-99.99,,,-99.99,PWS SA v1.10,2013-03-05 23:10:00,
2013-03-05 18:20:00,37.7,33.2,29.97,North,0,0.0,0.0,84,-99.99,,,-99.99,PWS SA v1.10,2013-03-05 23:20:00,
2013-03-05 18:25:00,37.5,33.1,29.97,North,0,0.0,0.0,85,-99.99,,,-99.99,PWS SA v1.10,2013-03-05 23:25:00,
2013-03-05 18:30:00,37.0,33.2,29.97,North,0,0.0,0.0,87,-99.99,,,-99.99,PWS SA v1.10,2013-03-05 23:30:00,
2013-03-05 18:40:00,36.7,33.4,29.97,North,0,0.0,0.0,88,-99.99,,,-99.99,PWS SA v1.10,2013-03-05 23:40:00,
2013-03-05 18:45:00,36.4,33.3,29.97,North,0,0.0,0.0,89,-99.99,,,-99.99,PWS SA v1.10,2013-03-05 23:45:00,
2013-03-05 18:50:00,36.0,33.1,29.97,North,0,0.0,0.0,90,-99.99,,,-99.99,PWS SA v1.10,2013-03-05 23:50:00,
2013-03-05 18:55:00,35.8,33.1,29.98,North,0,0.0,0.0,91,-99.99,,,-99.99,PWS SA v1.10,2013-03-05 23:55:00,
2013-03-05 19:00:00,35.6,33.1,29.98,North,0,0.0,0.0,91,-99.99,,,-99.99,PWS SA v1.10,2013-03-06 00:00:00,
2013-03-05 19:05:00,35.4,32.8,29.98,North,0,0.0,0.0,91,-99.99,,,-99.99,PWS SA v1.10,2013-03-06 00:05:00,
2013-03-05 19:10:00,35.4,32.9,29.99,North,0,0.0,0.0,92,-99.99,,,-99.99,PWS SA v1.10,2013-03-06 00:10:00,
2013-03-05 19:15:00,35.3,33.0,29.99,North,0,0.0,0.0,93,-99.99,,,-99.99,PWS SA v1.10,2013-03-06 00:15:00,
2013-03-05 19:20:00,35.3,33.2,29.99,North,0,0.0,0.0,93,-99.99,,,-99.99,PWS SA v1.10,2013-03-06 00:20:00,
2013-03-05 19:25:00,35.3,33.2,29.99,North,0,0.0,0.0,93,-99.99,,,-99.99,PWS SA v1.10,2013-03-06 00:25:00,
2013-03-05 19:30:00,34.9,32.9,30.00,North,0,0.0,0.0,93,-99.99,,,-99.99,PWS SA v1.10,2013-03-06 00:30:00,
2013-03-05 19:35:00,34.7,32.4,30.00,North,0,0.0,0.0,93,-99.99,,,-99.99,PWS SA v1.10,2013-03-06 00:35:00,
2013-03-05 19:45:00,34.9,32.7,30.00,North,0,0.0,0.0,93,-99.99,,,-99.99,PWS SA v1.10,2013-03-06 00:45:00,
2013-03-05 19:50:00,35.0,32.7,30.00,North,0,0.0,0.0,93,-99.99,,,-99.99,PWS SA v1.10,2013-03-06 00:50:00,
2013-03-05 20:00:00,34.5,32.4,29.99,North,0,0.0,0.0,93,-99.99,,,-99.99,PWS SA v1.10,2013-03-06 01:00:00,
2013-03-05 20:05:00,34.1,32.2,29.99,North,0,0.0,0.0,93,-99.99,,,-99.99,PWS SA v1.10,2013-03-06 01:05:00,
2013-03-05 20:10:00,33.9,32.2,29.99,North,0,0.0,0.0,94,-99.99,,,-99.99,PWS SA v1.10,2013-03-06 01:10:00,
2013-03-05 20:15:00,33.6,32.0,29.99,North,0,0.0,0.0,94,-99.99,,,-99.99,PWS SA v1.10,2013-03-06 01:15:00,
2013-03-05 20:20:00,33.6,32.0,29.99,North,0,0.0,0.0,95,-99.99,,,-99.99,PWS SA v1.10,2013-03-06 01:20:00,
2013-03-05 20:25:00,33.1,31.8,29.98,North,0,0.0,0.0,95,-99.99,,,-99.99,PWS SA v1.10,2013-03-06 01:25:00,
2013-03-05 20:35:00,32.9,31.5,29.99,North,0,0.0,0.0,95,-99.99,,,-99.99,PWS SA v1.10,2013-03-06 01:35:00,
2013-03-05 20:40:00,32.6,31.3,29.99,North,0,0.0,0.0,95,-99.99,,,-99.99,PWS SA v1.10,2013-03-06 01:40:00,
2013-03-05 20:45:00,32.5,31.2,29.99,North,0,0.0,0.0,95,-99.99,,,-99.99,PWS SA v1.10,2013-03-06 01:45:00,
2013-03-05 20:50:00,32.2,31.1,29.99,North,0,0.0,0.0,95,-99.99,,,-99.99,PWS SA v1.10,2013-03-06 01:50:00,
2013-03-05 21:00:00,32.1,31.2,29.99,North,0,0.0,0.0,96,-99.99,,,-99.99,PWS SA v1.10,2013-03-06 02:00:00,
2013-03-05 21:05:00,32.2,31.4,29.98,North,0,0.0,0.0,97,-99.99,,,-99.99,PWS SA v1.10,2013-03-06 02:05:00,
2013-03-05 21:10:00,32.5,31.7,29.99,North,0,0.0,0.0,97,-99.99,,,-99.99,PWS SA v1.10,2013-03-06 02:10:00,
2013-03-05 21:20:00,33.1,32.3,29.99,North,0,0.0,0.0,97,-99.99,,,-99.99,PWS SA v1.10,2013-03-06 02:20:00,
2013-03-05 21:25:00,33.1,32.3,29.99,North,0,0.0,0.0,97,-99.99,,,-99.99,PWS SA v1.10,2013-03-06 02:25:00,
2013-03-05 21:30:00,33.8,32.8,29.99,North,0,0.0,0.0,97,-99.99,,,-99.99,PWS SA v1.10,2013-03-06 02:30:00,
2013-03-05 21:35:00,34.0,32.9,29.99,North,0,0.0,0.0,97,-99.99,,,-99.99,PWS SA v1.10,2013-03-06 02:35:00,
2013-03-05 21:40:00,34.2,32.9,29.99,North,0,0.0,0.0,96,-99.99,,,-99.99,PWS SA v1.10,2013-03-06 02:40:00,
2013-03-05 21:45:00,34.3,33.0,29.99,North,0,0.0,0.0,96,-99.99,,,-99.99,PWS SA v1.10,2013-03-06 02:45:00,
2013-03-05 21:55:00,34.4,32.8,29.98,North,0,0.0,3.0,95,-99.99,,,-99.99,PWS SA v1.10,2013-03-06 02:55:00,
2013-03-05 22:00:00,34.5,33.0,29.99,North,0,0.0,3.0,95,-99.99,,,-99.99,PWS SA v1.10,2013-03-06 03:00:00,
2013-03-05 22:05:00,34.8,33.1,29.99,WSW,244,1.7,3.0,95,-99.99,,,-99.99,PWS SA v1.10,2013-03-06 03:05:00,
2013-03-05 22:10:00,34.7,33.2,29.99,North,0,0.0,1.0,95,-99.99,,,-99.99,PWS SA v1.10,2013-03-06 03:10:00,
2013-03-05 22:15:00,34.7,33.3,29.99,North,0,0.0,1.0,95,-99.99,,,-99.99,PWS SA v1.10,2013-03-06 03:15:00,
2013-03-05 22:20:00,34.7,32.8,29.99,North,0,0.0,1.0,94,-99.99,,,-99.99,PWS SA v1.10,2013-03-06 03:20:00,
2013-03-05 22:25:00,34.6,32.9,30.00,North,0,0.0,0.0,94,-99.99,,,-99.99,PWS SA v1.10,2013-03-06 03:25:00,
2013-03-05 22:30:00,34.8,32.8,30.00,North,0,0.0,0.0,94,-99.99,,,-99.99,PWS SA v1.10,2013-03-06 03:30:00,
2013-03-05 22:35:00,34.5,32.7,29.99,North,0,0.0,0.0,93,-99.99,,,-99.99,PWS SA v1.10,2013-03-06 03:35:00,
2013-03-05 22:40:00,34.5,32.9,30.00,North,0,0.0,0.0,94,-99.99,,,-99.99,PWS SA v1.10,2013-03-06 03:40:00,
2013-03-05 22:45:00,34.6,33.0,30.00,North,0,0.0,0.0,94,-99.99,,,-99.99,PWS SA v1.10,2013-03-06 03:45:00,
2013-03-05 22:50:00,34.6,33.0,30.01,North,0,0.0,0.0,94,-99.99,,,-99.99,PWS SA v1.10,2013-03-06 03:50:00,
2013-03-05 22:55:00,34.7,33.0,30.01,North,0,0.0,0.0,94,-99.99,,,-99.99,PWS SA v1.10,2013-03-06 03:55:00,
2013-03-05 23:00:00,34.8,33.4,30.01,North,0,0.0,0.0,94,-99.99,,,-99.99,PWS SA v1.10,2013-03-06 04:00:00,
2013-03-05 23:05:00,34.7,33.1,30.01,North,0,0.0,0.0,94,-99.99,,,-99.99,PWS SA v1.10,2013-03-06 04:05:00,
2013-03-05 23:10:00,34.6,32.7,30.01,North,0,0.0,0.0,93,-99.99,,,-99.99,PWS SA v1.10,2013-03-06 04:10:00,
2013-03-05 23:15:00,34.8,32.8,30.01,North,0,0.0,0.0,93,-99.99,,,-99.99,PWS SA v1.10,2013-03-06 04:15:00,
2013-03-05 23:20:00,34.7,32.8,30.01,North,0,0.0,0.0,93,-99.99,,,-99.99,PWS SA v1.10,2013-03-06 04:20:00,
2013-03-05 23:25:00,34.7,32.9,30.01,North,0,0.0,0.0,93,-99.99,,,-99.99,PWS SA v1.10,2013-03-06 04:25:00,
2013-03-05 23:30:00,34.7,32.7,30.01,North,0,0.0,0.0,93,-99.99,,,-99.99,PWS SA v1.10,2013-03-06 04:30:00,
2013-03-05 23:35:00,34.7,32.5,30.01,North,0,0.0,0.0,93,-99.99,,,-99.99,PWS SA v1.10,2013-03-06 04:35:00,
2013-03-05 23:40:00,34.7,32.7,30.00,North,0,0.0,0.0,93,-99.99,,,-99.99,PWS SA v1.10,2013-03-06 04:40:00,
2013-03-05 23:45:00,34.8,32.8,30.00,North,0,0.0,0.0,93,-99.99,,,-99.99,PWS SA v1.10,2013-03-06 04:45:00,
2013-03-05 23:50:00,34.8,32.8,30.00,North,0,0.0,0.0,93,-99.99,,,-99.99,PWS SA v1.10,2013-03-06 04:50:00,
2013-03-05 23:55:00,35.0,33.0,30.01,North,0,0.0,0.0,93,-99.99,,,-99.99,PWS SA v1.10,2013-03-06 04:55:00,